Time;durP1;ratioP1;P1;durP2;ratioP2;P2;SDS_P1;SDS_P2;PMS_P1;PMS_P2;Temp;Humidity;BMP_temperature;BMP_pressure;BME280_temperature;BME280_humidity;BME280_pressure;Samples;Min_cycle;Max_cycle;Signal;HPM_P1;HPM_P2
2022/06/18 00:01:58;;;;;;;2.00;1.55;;;22.10;50.50;;;;;;6120480;29;20431;-78
2022/06/18 00:04:58;;;;;;;2.00;1.70;;;22.00;50.40;;;;;;6115311;29;20031;-79
2022/06/18 00:08:06;;;;;;;2.08;1.60;;;22.10;50.50;;;;;;6144582;29;20043;-79
2022/06/18 00:14:28;;;;;;;2.20;1.65;;;22.10;50.50;;;;;;6144114;29;20072;-79
2022/06/18 00:17:29;;;;;;;1.75;1.50;;;22.10;50.50;;;;;;6138279;29;20509;-79
2022/06/18 00:20:33;;;;;;;1.95;1.40;;;22.10;51.20;;;;;;6143976;29;20035;-79
2022/06/18 00:23:38;;;;;;;2.10;1.80;;;22.10;50.60;;;;;;6163940;28;20141;-79
2022/06/18 00:26:39;;;;;;;2.05;1.80;;;22.10;50.50;;;;;;6198341;28;20022;-79
2022/06/18 00:29:39;;;;;;;1.50;1.33;;;22.10;50.60;;;;;;6219310;28;20428;-79
2022/06/18 00:32:40;;;;;;;1.65;1.45;;;22.10;50.60;;;;;;6198256;28;20026;-79
2022/06/18 00:35:42;;;;;;;2.33;1.80;;;22.10;50.60;;;;;;6207420;28;20052;-79
2022/06/18 00:38:46;;;;;;;2.15;1.52;;;22.10;50.60;;;;;;6219493;28;20148;-79
2022/06/18 00:41:51;;;;;;;1.67;1.45;;;22.10;50.60;;;;;;6180899;28;20033;-79
2022/06/18 00:44:54;;;;;;;;;;;22.10;50.60;;;;;;6196850;28;20037;-79
2022/06/18 00:48:11;;;;;;;1.60;1.30;;;22.10;50.60;;;;;;6201567;28;19928;-79
2022/06/18 00:51:24;;;;;;;2.13;1.50;;;22.10;50.60;;;;;;6204344;28;20440;-79
2022/06/18 00:54:38;;;;;;;2.17;1.63;;;22.10;50.70;;;;;;6194379;28;20032;-79
2022/06/18 00:57:49;;;;;;;2.00;1.52;;;22.10;50.60;;;;;;6194930;28;20030;-79
2022/06/18 01:00:50;;;;;;;1.85;1.65;;;22.10;50.70;;;;;;6203921;28;20396;-79
2022/06/18 01:03:51;;;;;;;1.65;1.30;;;22.10;50.70;;;;;;6218797;28;20484;-79
2022/06/18 01:06:59;;;;;;;2.47;1.80;;;22.10;50.70;;;;;;6183233;28;20030;-79
2022/06/18 01:10:02;;;;;;;2.08;1.73;;;22.10;50.70;;;;;;6196825;28;20061;-79
2022/06/18 01:13:06;;;;;;;1.85;1.60;;;22.10;50.70;;;;;;6201515;28;20036;-79
2022/06/18 01:16:09;;;;;;;1.85;1.55;;;22.10;50.70;;;;;;6190770;28;20061;-79
2022/06/18 01:19:34;;;;;;;3.38;1.67;;;22.10;50.70;;;;;;6193846;28;20026;-79
2022/06/18 01:22:46;;;;;;;2.05;1.73;;;22.00;50.60;;;;;;6215922;28;20079;-79
2022/06/18 01:25:47;;;;;;;1.65;1.52;;;22.00;50.70;;;;;;6194885;28;20113;-79
2022/06/18 01:28:48;;;;;;;1.88;1.55;;;22.00;50.70;;;;;;6194255;28;20065;-79
2022/06/18 01:31:50;;;;;;;2.25;1.52;;;22.00;50.60;;;;;;6207678;28;20053;-79
2022/06/18 01:34:52;;;;;;;1.88;1.52;;;22.00;50.70;;;;;;6218595;28;20026;-80
2022/06/18 01:37:52;;;;;;;2.67;1.70;;;22.00;50.70;;;;;;6182443;28;20132;-79
2022/06/18 01:41:49;;;;;;;1.83;1.50;;;22.10;50.70;;;;;;6195664;28;20485;-79
2022/06/18 01:44:58;;;;;;;1.90;1.30;;;22.10;50.70;;;;;;6198602;28;20096;-80
2022/06/18 01:48:09;;;;;;;2.03;1.38;;;22.00;50.70;;;;;;6220210;28;20038;-79
2022/06/18 01:51:15;;;;;;;1.42;1.23;;;22.00;50.70;;;;;;6199580;28;20505;-79
2022/06/18 01:54:22;;;;;;;2.22;1.63;;;22.00;50.70;;;;;;6197109;28;20018;-78
2022/06/18 01:57:29;;;;;;;2.70;1.90;;;22.00;50.70;;;;;;6207824;28;20080;-79
2022/06/18 02:00:30;;;;;;;1.90;1.67;;;22.00;50.70;;;;;;6196341;28;20037;-80
2022/06/18 02:03:30;;;;;;;1.48;1.23;;;22.10;50.80;;;;;;6222239;28;20033;-80
2022/06/18 02:06:34;;;;;;;1.95;1.40;;;22.00;50.70;;;;;;6223459;28;20037;-79
2022/06/18 02:10:00;;;;;;;1.40;1.30;;;22.00;50.70;;;;;;6205308;28;20057;-79
2022/06/18 02:13:03;;;;;;;1.80;1.60;;;22.00;50.70;;;;;;6186720;28;20505;-79
2022/06/18 02:16:09;;;;;;;2.15;1.63;;;22.00;50.80;;;;;;6199768;28;20054;-79
2022/06/18 02:19:11;;;;;;;1.92;1.50;;;22.00;50.70;;;;;;6222741;28;20120;-79
2022/06/18 02:22:12;;;;;;;1.90;1.60;;;22.00;50.70;;;;;;6208550;28;20053;-80
2022/06/18 02:25:14;;;;;;;2.28;1.58;;;22.00;50.70;;;;;;6198093;28;20047;-79
2022/06/18 02:28:24;;;;;;;1.55;1.38;;;22.00;50.80;;;;;;6212660;28;20022;-79
2022/06/18 02:31:30;;;;;;;1.98;1.50;;;22.00;50.80;;;;;;6219696;28;20396;-79
2022/06/18 02:34:31;;;;;;;1.50;1.40;;;22.00;50.80;;;;;;6206437;28;20028;-79
2022/06/18 02:37:32;;;;;;;1.55;1.30;;;22.00;50.80;;;;;;6211160;28;20050;-79
2022/06/18 02:40:33;;;;;;;1.52;1.40;;;22.00;50.80;;;;;;6197819;28;20092;-80
2022/06/18 02:43:33;;;;;;;2.00;1.50;;;22.00;50.80;;;;;;6198785;28;20037;-79
2022/06/18 02:46:34;;;;;;;1.73;1.50;;;22.00;50.80;;;;;;6202314;28;20405;-79
2022/06/18 02:49:43;;;;;;;1.80;1.60;;;22.00;50.80;;;;;;6197213;28;20026;-79
2022/06/18 02:52:50;;;;;;;1.60;1.20;;;22.00;50.80;;;;;;6190102;28;20029;-80
2022/06/18 02:55:58;;;;;;;1.55;1.45;;;22.00;50.90;;;;;;6221894;28;20484;-80
2022/06/18 02:58:59;;;;;;;2.58;1.90;;;22.00;50.80;;;;;;6202061;28;20511;-79
2022/06/18 03:01:59;;;;;;;2.00;1.58;;;22.00;50.80;;;;;;6193904;28;20022;-79
2022/06/18 03:05:00;;;;;;;2.10;1.60;;;22.00;50.90;;;;;;6197050;28;20034;-79
2022/06/18 03:08:01;;;;;;;1.60;1.27;;;22.00;50.90;;;;;;6205508;28;20532;-79
2022/06/18 03:14:22;;;;;;;2.10;1.60;;;22.00;50.90;;;;;;6200567;28;20433;-79
2022/06/18 03:17:23;;;;;;;1.60;1.50;;;22.00;51.60;;;;;;6200896;28;20342;-79
2022/06/18 03:20:30;;;;;;;1.58;1.45;;;22.00;50.90;;;;;;6220769;28;20121;-80
2022/06/18 03:23:31;;;;;;;1.55;1.45;;;22.00;51.00;;;;;;6200867;28;20073;-80
2022/06/18 03:26:32;;;;;;;1.98;1.55;;;22.00;51.00;;;;;;6196812;28;20105;-80
2022/06/18 03:29:34;;;;;;;2.28;1.70;;;22.00;50.90;;;;;;6212116;28;20397;-80
2022/06/18 03:32:34;;;;;;;2.22;1.80;;;22.00;50.90;;;;;;6200736;28;20030;-80
2022/06/18 03:35:36;;;;;;;1.58;1.40;;;22.00;50.90;;;;;;6178910;28;20117;-80
2022/06/18 03:38:37;;;;;;;2.30;1.92;;;22.00;50.90;;;;;;6206698;28;20505;-79
2022/06/18 03:41:38;;;;;;;1.70;1.40;;;22.00;50.90;;;;;;6220203;28;20473;-80
2022/06/18 03:44:39;;;;;;;1.65;1.45;;;22.00;51.00;;;;;;6201417;28;20030;-79
2022/06/18 03:47:39;;;;;;;2.00;1.70;;;22.00;51.00;;;;;;6199147;28;20385;-80
2022/06/18 03:50:40;;;;;;;1.98;1.60;;;22.00;51.00;;;;;;6219934;28;20033;-80
2022/06/18 03:53:41;;;;;;;1.85;1.63;;;22.00;51.00;;;;;;6196620;28;20060;-80
2022/06/18 03:56:42;;;;;;;1.70;1.40;;;22.00;51.00;;;;;;6202800;28;20373;-80
2022/06/18 03:59:43;;;;;;;1.75;1.35;;;22.00;51.00;;;;;;6184616;28;20034;-80
2022/06/18 04:02:43;;;;;;;3.13;1.63;;;22.00;51.00;;;;;;6179275;28;20030;-80
2022/06/18 04:05:44;;;;;;;1.88;1.50;;;22.00;51.00;;;;;;6202641;28;20125;-79
2022/06/18 04:08:45;;;;;;;1.67;1.40;;;22.00;51.00;;;;;;6209506;28;20034;-80
2022/06/18 04:11:45;;;;;;;1.88;1.63;;;22.00;51.00;;;;;;6196565;28;20030;-80
2022/06/18 04:14:46;;;;;;;1.77;1.40;;;22.00;51.10;;;;;;6193987;28;20046;-80
2022/06/18 04:17:47;;;;;;;1.92;1.48;;;22.00;51.10;;;;;;6202262;28;20037;-79
2022/06/18 04:20:48;;;;;;;1.63;1.42;;;22.00;51.10;;;;;;6202164;28;20046;-79
2022/06/18 04:23:48;;;;;;;1.80;1.65;;;22.00;51.10;;;;;;6219671;28;20104;-79
2022/06/18 04:26:49;;;;;;;1.77;1.48;;;22.00;51.10;;;;;;6202160;28;20022;-80
2022/06/18 04:29:50;;;;;;;1.45;1.30;;;22.00;51.10;;;;;;6187478;28;20029;-80
2022/06/18 04:32:51;;;;;;;1.50;1.40;;;22.00;51.10;;;;;;6178047;28;20034;-78
2022/06/18 04:35:53;;;;;;;2.15;1.70;;;22.00;51.10;;;;;;6175602;28;20477;-79
2022/06/18 04:38:54;;;;;;;2.10;1.70;;;22.00;51.10;;;;;;6196865;28;20452;-79
2022/06/18 04:41:55;;;;;;;1.55;1.27;;;22.00;51.10;;;;;;6201561;28;20080;-79
2022/06/18 04:44:55;;;;;;;1.98;1.67;;;22.00;51.10;;;;;;6184840;28;20403;-79
2022/06/18 04:47:57;;;;;;;1.80;1.45;;;22.00;51.10;;;;;;6194682;28;20053;-79
2022/06/18 04:50:58;;;;;;;1.48;1.38;;;22.00;51.20;;;;;;6198381;28;20116;-79
2022/06/18 04:53:58;;;;;;;2.15;1.60;;;22.00;51.10;;;;;;6196808;28;20423;-79
2022/06/18 04:56:59;;;;;;;1.58;1.40;;;22.00;51.10;;;;;;6191986;28;20022;-79
2022/06/18 05:00:34;;;;;;;1.40;1.30;;;22.00;51.10;;;;;;6218576;28;20022;-81
2022/06/18 05:03:35;;;;;;;1.83;1.57;;;22.00;51.10;;;;;;6200235;28;20064;-80
2022/06/18 05:06:35;;;;;;;1.55;1.42;;;22.00;51.10;;;;;;6218775;28;20030;-79
2022/06/18 05:09:36;;;;;;;1.42;1.13;;;22.00;51.60;;;;;;6211518;28;20528;-79
2022/06/18 05:12:37;;;;;;;1.40;1.30;;;22.00;51.20;;;;;;6183192;28;20047;-79
2022/06/18 05:15:39;;;;;;;1.50;1.40;;;22.00;51.10;;;;;;6199832;28;20017;-79
2022/06/18 05:18:45;;;;;;;1.58;1.30;;;22.00;51.20;;;;;;6209415;28;20603;-79
2022/06/18 05:21:45;;;;;;;1.80;1.50;;;22.00;51.20;;;;;;6203367;28;20389;-79
2022/06/18 05:24:46;;;;;;;1.52;1.33;;;22.00;51.20;;;;;;6208941;28;20131;-80
2022/06/18 05:27:47;;;;;;;1.60;1.50;;;22.00;51.20;;;;;;6209337;28;20026;-80
2022/06/18 05:30:48;;;;;;;1.80;1.50;;;22.00;51.20;;;;;;6212285;28;20033;-80
2022/06/18 05:33:49;;;;;;;1.77;1.58;;;22.00;51.20;;;;;;6202306;28;20030;-79
2022/06/18 05:36:49;;;;;;;2.00;1.65;;;22.00;51.20;;;;;;6202005;28;20124;-79
2022/06/18 05:39:50;;;;;;;1.73;1.40;;;22.00;51.20;;;;;;6207131;28;20036;-79
2022/06/18 05:42:53;;;;;;;1.25;1.15;;;22.00;51.20;;;;;;6208704;28;20037;-79
2022/06/18 05:45:54;;;;;;;1.40;1.30;;;22.00;51.20;;;;;;6196043;28;20120;-80
2022/06/18 05:48:55;;;;;;;1.58;1.40;;;22.00;51.20;;;;;;6184390;28;20022;-79
2022/06/18 05:51:55;;;;;;;1.10;1.00;;;22.00;51.20;;;;;;6222896;28;20026;-79
2022/06/18 05:54:56;;;;;;;1.38;1.27;;;22.00;51.20;;;;;;6205567;28;20089;-79
2022/06/18 05:57:58;;;;;;;1.80;1.42;;;22.00;51.10;;;;;;6184779;28;20340;-79
2022/06/18 06:00:59;;;;;;;2.25;1.17;;;22.00;51.80;;;;;;6213517;28;20487;-79
2022/06/18 06:03:59;;;;;;;1.50;1.17;;;22.00;51.90;;;;;;6227032;28;20030;-80
2022/06/18 06:07:00;;;;;;;2.00;1.52;;;22.00;49.80;;;;;;6220064;28;20034;-79
2022/06/18 06:13:20;;;;;;;1.70;1.42;;;22.20;48.60;;;;;;6226837;28;20034;-79
2022/06/18 06:16:20;;;;;;;1.73;1.60;;;22.30;48.30;;;;;;6196831;28;20034;-79
2022/06/18 06:19:21;;;;;;;2.38;1.80;;;22.30;48.00;;;;;;6201694;28;20057;-79
2022/06/18 06:22:22;;;;;;;2.53;1.48;;;22.40;48.00;;;;;;6219223;28;20061;-79
2022/06/18 06:25:23;;;;;;;1.80;1.48;;;22.40;47.70;;;;;;6202178;28;20564;-79
2022/06/18 06:28:28;;;;;;;1.60;1.25;;;22.50;47.70;;;;;;6198433;28;20022;-79
2022/06/18 06:31:29;;;;;;;1.52;1.30;;;22.50;47.50;;;;;;6192058;28;20026;-79
2022/06/18 06:34:30;;;;;;;2.33;1.67;;;22.50;47.30;;;;;;6222813;28;20029;-79
2022/06/18 06:37:31;;;;;;;1.10;1.00;;;22.50;47.30;;;;;;6186030;28;20124;-79
2022/06/18 06:40:32;;;;;;;1.98;1.42;;;22.60;47.30;;;;;;6180726;28;20117;-79
2022/06/18 06:43:33;;;;;;;1.98;1.30;;;22.50;47.00;;;;;;6198704;28;20100;-79
2022/06/18 06:46:34;;;;;;;1.63;1.27;;;22.60;47.00;;;;;;6207849;28;20026;-79
2022/06/18 06:49:34;;;;;;;1.55;1.27;;;22.60;46.90;;;;;;6222143;28;20046;-79
2022/06/18 06:52:35;;;;;;;1.20;1.10;;;22.60;46.80;;;;;;6206882;28;20644;-80
2022/06/18 06:58:57;;;;;;;1.23;1.13;;;22.60;46.70;;;;;;6197900;28;20030;-79
2022/06/18 07:01:57;;;;;;;1.60;1.50;;;22.60;46.50;;;;;;6208831;28;20428;-79
2022/06/18 07:04:58;;;;;;;2.03;1.40;;;22.70;46.70;;;;;;6222311;28;20072;-79
2022/06/18 07:07:58;;;;;;;1.40;1.20;;;22.70;46.50;;;;;;6221766;28;20485;-79
2022/06/18 07:11:00;;;;;;;1.30;1.20;;;22.70;46.40;;;;;;6219767;28;20026;-79
2022/06/18 07:14:01;;;;;;;1.52;1.17;;;22.70;46.30;;;;;;6197804;28;20019;-79
2022/06/18 07:17:02;;;;;;;1.63;1.33;;;22.70;46.30;;;;;;6207481;28;20393;-79
2022/06/18 07:20:04;;;;;;;1.38;1.20;;;22.70;46.30;;;;;;6221485;28;20402;-78
2022/06/18 07:23:05;;;;;;;1.35;1.08;;;22.70;46.20;;;;;;6200707;28;20038;-79
2022/06/18 07:26:06;;;;;;;1.38;1.20;;;22.70;46.80;;;;;;6197828;28;20026;-79
2022/06/18 07:29:07;;;;;;;1.45;1.35;;;22.70;46.10;;;;;;6221784;28;20037;-79
2022/06/18 07:32:13;;;;;;;1.48;1.30;;;22.70;46.00;;;;;;6212387;28;20021;-79
2022/06/18 07:35:20;;;;;;;1.55;1.20;;;22.70;46.00;;;;;;6196222;28;20552;-78
2022/06/18 07:38:21;;;;;;;1.50;1.30;;;22.70;46.00;;;;;;6196422;28;20054;-79
2022/06/18 07:41:26;;;;;;;1.50;1.40;;;22.70;45.90;;;;;;6197034;28;20450;-79
2022/06/18 07:44:27;;;;;;;1.30;1.10;;;22.70;45.80;;;;;;6219997;28;20033;-79
2022/06/18 07:47:27;;;;;;;1.30;1.08;;;22.80;45.80;;;;;;6211779;28;20073;-79
2022/06/18 07:50:29;;;;;;;1.25;1.13;;;22.70;45.80;;;;;;6178751;28;20030;-79
2022/06/18 07:53:31;;;;;;;1.15;1.05;;;22.80;45.80;;;;;;6212438;28;20064;-78
2022/06/18 07:56:32;;;;;;;1.30;1.17;;;22.80;45.70;;;;;;6220430;28;20026;-79
2022/06/18 07:59:33;;;;;;;1.10;1.00;;;22.80;45.80;;;;;;6178537;28;20037;-79
2022/06/18 08:02:39;;;;;;;1.08;0.93;;;22.80;45.60;;;;;;6178806;28;20061;-79
2022/06/18 08:05:39;;;;;;;1.60;1.38;;;22.80;45.70;;;;;;6196067;28;20034;-79
2022/06/18 08:08:40;;;;;;;1.20;1.10;;;22.80;45.60;;;;;;6213154;28;20030;-79
2022/06/18 08:11:42;;;;;;;1.23;1.10;;;22.80;45.60;;;;;;6220245;28;20053;-78
2022/06/18 08:14:43;;;;;;;1.50;1.17;;;22.80;45.60;;;;;;6196184;28;20030;-79
2022/06/18 08:17:44;;;;;;;1.20;1.10;;;22.80;45.50;;;;;;6185348;28;20038;-79
2022/06/18 08:20:45;;;;;;;1.45;1.30;;;22.80;45.50;;;;;;6220285;28;20076;-79
2022/06/18 08:23:47;;;;;;;0.95;0.90;;;22.80;45.40;;;;;;6204816;28;20034;-78
2022/06/18 08:26:50;;;;;;;1.20;1.10;;;22.80;45.40;;;;;;6175329;28;20176;-78
2022/06/18 08:29:51;;;;;;;1.10;0.98;;;22.80;45.40;;;;;;6200437;28;20028;-79
2022/06/18 08:32:51;;;;;;;1.15;1.00;;;22.80;45.30;;;;;;6195789;28;20034;-78
2022/06/18 08:35:52;;;;;;;1.00;0.90;;;22.80;45.30;;;;;;6217582;28;20096;-79
2022/06/18 08:38:54;;;;;;;1.10;1.00;;;22.80;45.30;;;;;;6185964;28;20050;-79
2022/06/18 08:42:10;;;;;;;1.15;0.95;;;22.80;45.30;;;;;;6195011;28;20030;-79
2022/06/18 08:45:55;;;;;;;1.08;0.98;;;22.80;45.20;;;;;;6200252;28;20241;-79
2022/06/18 08:49:31;;;;;;;1.13;1.00;;;22.80;45.20;;;;;;6156253;28;20031;-79
2022/06/18 08:52:40;;;;;;;1.45;1.20;;;22.80;45.20;;;;;;6175625;28;20493;-78
2022/06/18 08:56:06;;;;;;;1.10;1.00;;;22.90;45.20;;;;;;6218746;28;20048;-79
2022/06/18 08:59:21;;;;;;;1.10;1.00;;;22.80;45.10;;;;;;6206153;28;20389;-78
2022/06/18 09:02:40;;;;;;;;;;;22.90;45.10;;;;;;6177623;28;20790;-78
2022/06/18 09:06:03;;;;;;;0.80;0.80;;;22.90;45.10;;;;;;6200470;28;19919;-79
2022/06/18 09:09:07;;;;;;;0.95;0.85;;;22.80;45.00;;;;;;6194629;28;20408;-79
2022/06/18 09:12:42;;;;;;;1.27;0.90;;;22.80;45.00;;;;;;6192074;28;20029;-79
2022/06/18 09:15:51;;;;;;;1.10;1.00;;;22.80;44.90;;;;;;6202920;28;20034;-79
2022/06/18 09:18:56;;;;;;;1.13;0.88;;;22.90;45.00;;;;;;6162828;28;20039;-78
2022/06/18 09:22:00;;;;;;;1.20;1.00;;;22.80;44.90;;;;;;6165397;28;20134;-79
2022/06/18 09:25:12;;;;;;;1.45;1.10;;;22.80;44.80;;;;;;6165417;28;20096;-79
2022/06/18 09:28:22;;;;;;;0.93;0.82;;;22.90;44.90;;;;;;6166170;28;20065;-79
2022/06/18 09:31:33;;;;;;;1.00;0.90;;;22.90;44.90;;;;;;6165306;28;20094;-79
2022/06/18 09:34:37;;;;;;;1.10;1.00;;;22.90;44.80;;;;;;6166283;28;20031;-79
2022/06/18 09:37:48;;;;;;;0.90;0.80;;;22.90;44.90;;;;;;6166121;28;20047;-78
2022/06/18 09:40:51;;;;;;;1.38;1.10;;;22.90;44.80;;;;;;6166252;28;20070;-78
2022/06/18 09:44:31;;;;;;;1.27;0.90;;;22.90;44.80;;;;;;6166421;28;20050;-78
2022/06/18 09:47:37;;;;;;;1.17;0.90;;;22.90;44.80;;;;;;6166296;28;20532;-79
2022/06/18 09:50:51;;;;;;;0.82;0.80;;;22.90;44.80;;;;;;6150254;28;20031;-79
2022/06/18 09:53:52;;;;;;;1.13;0.88;;;22.90;44.80;;;;;;6166414;28;20102;-78
2022/06/18 09:56:59;;;;;;;1.05;0.90;;;22.90;44.70;;;;;;6169169;28;20038;-79
2022/06/18 10:00:11;;;;;;;1.00;0.90;;;22.90;44.70;;;;;;6185279;28;20409;-79
2022/06/18 10:06:57;;;;;;;1.20;1.00;;;22.90;44.60;;;;;;6141117;28;20043;-79
2022/06/18 10:10:09;;;;;;;0.85;0.80;;;22.90;44.60;;;;;;6184759;28;20026;-79
2022/06/18 10:13:18;;;;;;;1.08;0.98;;;22.90;44.60;;;;;;6197633;28;20433;-79
2022/06/18 10:16:43;;;;;;;1.00;0.90;;;22.90;44.60;;;;;;6177635;28;20039;-79
2022/06/18 10:20:10;;;;;;;1.40;1.05;;;22.90;44.60;;;;;;6179138;28;20061;-78
2022/06/18 10:23:30;;;;;;;1.30;1.20;;;22.90;44.60;;;;;;6196775;28;20033;-77
2022/06/18 10:27:03;;;;;;;1.10;1.00;;;22.90;44.60;;;;;;6175208;28;20027;-78
2022/06/18 10:30:10;;;;;;;1.00;0.90;;;22.90;44.60;;;;;;6182008;28;20037;-77
2022/06/18 10:33:41;;;;;;;1.00;0.90;;;22.90;44.50;;;;;;6197711;28;20073;-78
2022/06/18 10:37:07;;;;;;;0.80;0.80;;;22.90;44.50;;;;;;6196879;28;20076;-78
2022/06/18 10:40:29;;;;;;;1.58;1.10;;;22.90;44.60;;;;;;6214666;28;20019;-77
2022/06/18 10:43:46;;;;;;;1.08;0.98;;;22.90;44.50;;;;;;6217207;28;20046;-78
2022/06/18 10:47:00;;;;;;;1.00;0.90;;;22.90;44.40;;;;;;6200447;28;20312;-77
2022/06/18 10:50:08;;;;;;;0.90;0.80;;;22.90;44.40;;;;;;6184263;28;20026;-78
2022/06/18 10:53:13;;;;;;;0.80;0.80;;;22.90;44.50;;;;;;6214570;28;20050;-78
2022/06/18 10:56:26;;;;;;;2.03;0.93;;;22.90;44.40;;;;;;6193360;28;20053;-78
2022/06/18 10:59:36;;;;;;;0.80;0.75;;;22.90;44.40;;;;;;6203520;28;20108;-77
2022/06/18 11:02:39;;;;;;;0.77;0.77;;;22.90;44.40;;;;;;6196576;28;20393;-78
2022/06/18 11:05:44;;;;;;;1.10;1.00;;;22.90;44.30;;;;;;6204615;28;20469;-78
2022/06/18 11:08:52;;;;;;;1.98;0.98;;;22.90;44.30;;;;;;6202478;28;20526;-77
2022/06/18 11:11:55;;;;;;;1.50;1.13;;;22.90;44.30;;;;;;6180719;28;20042;-78
2022/06/18 11:14:56;;;;;;;1.10;0.90;;;22.90;44.20;;;;;;6179871;28;20437;-77
2022/06/18 11:17:57;;;;;;;0.80;0.80;;;22.90;44.30;;;;;;6201922;28;20029;-77
2022/06/18 11:21:04;;;;;;;1.35;0.95;;;22.90;44.40;;;;;;6211124;28;20113;-77
2022/06/18 11:24:35;;;;;;;1.45;0.95;;;22.90;44.30;;;;;;6195959;28;20398;-77
2022/06/18 11:27:37;;;;;;;1.00;0.90;;;23.00;44.30;;;;;;6196762;28;20445;-78
2022/06/18 11:30:44;;;;;;;1.00;0.90;;;23.00;44.20;;;;;;6197213;28;20025;-78
2022/06/18 11:33:57;;;;;;;7.60;0.98;;;23.00;44.10;;;;;;6195530;28;20041;-74
2022/06/18 11:36:59;;;;;;;2.15;1.10;;;23.00;44.00;;;;;;6208256;28;20400;-74
2022/06/18 11:40:13;;;;;;;10.85;1.00;;;23.00;44.20;;;;;;6219169;28;20085;-74
2022/06/18 11:43:38;;;;;;;4.78;1.45;;;23.00;44.40;;;;;;6207684;28;20260;-75
2022/06/18 11:46:48;;;;;;;3.47;1.20;;;23.10;44.30;;;;;;6208248;28;20038;-75
2022/06/18 11:50:14;;;;;;;8.07;1.70;;;23.10;44.20;;;;;;6216515;28;20087;-79
2022/06/18 11:53:37;;;;;;;15.07;1.35;;;23.10;44.30;;;;;;6186902;28;20378;-78
2022/06/18 11:56:55;;;;;;;5.15;0.95;;;23.10;44.40;;;;;;6210927;28;20077;-78
2022/06/18 12:00:20;;;;;;;7.55;1.77;;;23.10;44.20;;;;;;6203171;28;20033;-79
2022/06/18 12:03:51;;;;;;;7.18;2.00;;;23.10;44.20;;;;;;6198557;28;20068;-79
2022/06/18 12:07:05;;;;;;;4.13;1.92;;;23.10;44.10;;;;;;6159619;28;20038;-79
2022/06/18 12:10:13;;;;;;;6.57;2.42;;;23.10;44.20;;;;;;6178265;28;20025;-80
2022/06/18 12:13:40;;;;;;;6.55;2.28;;;23.10;44.30;;;;;;6196647;28;20027;-81
2022/06/18 12:16:55;;;;;;;7.60;2.35;;;23.10;44.30;;;;;;6181564;28;20377;-80
2022/06/18 12:20:07;;;;;;;4.05;1.98;;;23.00;44.20;;;;;;6215590;28;20026;-79
2022/06/18 12:23:15;;;;;;;5.22;2.33;;;23.10;44.30;;;;;;6197246;28;20460;-77
2022/06/18 12:26:35;;;;;;;4.07;2.08;;;23.10;44.30;;;;;;6176004;28;20323;-79
2022/06/18 12:29:39;;;;;;;4.40;2.28;;;23.10;44.20;;;;;;6216182;28;20038;-78
2022/06/18 12:32:48;;;;;;;5.35;2.17;;;23.10;44.20;;;;;;6212260;28;20026;-78
2022/06/18 12:36:05;;;;;;;8.68;2.35;;;23.00;44.20;;;;;;6215015;28;20021;-78
2022/06/18 12:39:30;;;;;;;4.10;2.30;;;23.10;44.20;;;;;;6189324;28;20174;-78
2022/06/18 12:42:55;;;;;;;5.53;1.80;;;23.10;45.00;;;;;;6201367;28;20547;-79
2022/06/18 12:46:05;;;;;;;4.25;2.03;;;23.00;44.10;;;;;;6215623;28;20527;-78
2022/06/18 12:49:14;;;;;;;3.72;1.90;;;23.00;44.20;;;;;;6192407;28;20114;-78
2022/06/18 12:52:43;;;;;;;2.50;1.58;;;23.00;44.10;;;;;;6208541;28;20026;-78
2022/06/18 12:56:13;;;;;;;3.10;1.88;;;23.10;44.20;;;;;;6199696;28;20041;-78
2022/06/18 12:59:48;;;;;;;3.03;1.92;;;23.00;44.10;;;;;;6193962;28;20033;-73
2022/06/18 13:03:09;;;;;;;3.97;1.70;;;23.00;44.10;;;;;;6204484;28;20117;-76
2022/06/18 13:06:09;;;;;;;2.97;1.70;;;23.10;44.40;;;;;;6211613;28;20049;-77
2022/06/18 13:09:52;;;;;;;6.50;1.88;;;23.10;44.40;;;;;;6207559;28;20034;-77
2022/06/18 13:12:58;;;;;;;3.65;2.00;;;23.10;44.30;;;;;;6205312;28;20038;-76
2022/06/18 13:16:13;;;;;;;2.97;1.88;;;23.10;44.30;;;;;;6190697;28;20338;-76
2022/06/18 13:19:23;;;;;;;5.03;2.08;;;23.10;44.20;;;;;;6190816;28;20102;-76
2022/06/18 13:22:27;;;;;;;3.17;1.90;;;23.10;44.30;;;;;;6193989;28;20030;-76
2022/06/18 13:29:19;;;;;;;2.97;1.65;;;23.10;44.60;;;;;;6168180;28;20066;-76
2022/06/18 13:32:41;;;;;;;3.55;1.83;;;22.90;45.40;;;;;;6192908;28;20101;-76
2022/06/18 13:35:51;;;;;;;2.78;1.77;;;22.80;46.10;;;;;;6212453;28;20059;-76
2022/06/18 13:39:06;;;;;;;3.28;1.88;;;22.70;46.50;;;;;;6204080;28;20087;-76
2022/06/18 13:42:07;;;;;;;2.80;1.70;;;22.60;46.70;;;;;;6193796;28;20504;-76
2022/06/18 13:45:40;;;;;;;2.38;1.60;;;22.60;46.80;;;;;;6217894;28;20037;-76
2022/06/18 13:49:00;;;;;;;5.10;1.48;;;22.60;46.90;;;;;;6207358;28;20035;-76
2022/06/18 13:52:03;;;;;;;2.90;1.73;;;22.60;47.00;;;;;;6193452;28;20041;-76
2022/06/18 13:55:05;;;;;;;2.20;1.50;;;22.60;47.20;;;;;;6207798;28;20045;-75
2022/06/18 13:58:22;;;;;;;2.78;1.65;;;22.60;47.30;;;;;;6199656;28;20022;-76
2022/06/18 14:01:25;;;;;;;2.25;1.60;;;22.60;47.50;;;;;;6218926;28;20064;-76
2022/06/18 14:04:32;;;;;;;3.05;1.70;;;22.50;47.70;;;;;;6204836;28;20030;-77
2022/06/18 14:07:39;;;;;;;1.90;1.50;;;22.60;47.60;;;;;;6177805;28;20484;-77
2022/06/18 14:10:44;;;;;;;5.93;1.75;;;22.60;47.40;;;;;;6195461;28;20116;-76
2022/06/18 14:13:50;;;;;;;2.78;1.83;;;22.60;47.60;;;;;;6210257;28;20625;-77
2022/06/18 14:17:05;;;;;;;2.08;1.45;;;22.50;47.40;;;;;;6193038;28;20038;-77
2022/06/18 14:20:22;;;;;;;2.33;1.55;;;22.50;47.40;;;;;;6196483;28;20065;-78
2022/06/18 14:23:28;;;;;;;4.88;1.83;;;22.60;47.70;;;;;;6180606;28;20519;-77
2022/06/18 14:26:45;;;;;;;3.80;1.80;;;22.50;47.90;;;;;;6217633;28;20400;-78
2022/06/18 14:29:46;;;;;;;3.38;1.83;;;22.50;47.90;;;;;;6202864;28;20021;-77
2022/06/18 14:33:05;;;;;;;2.85;1.63;;;22.50;48.00;;;;;;6211202;28;20030;-77
2022/06/18 14:36:12;;;;;;;3.50;1.88;;;22.50;48.00;;;;;;6213143;28;20157;-77
2022/06/18 14:39:25;;;;;;;3.00;1.95;;;22.50;48.00;;;;;;6208737;28;20267;-77
2022/06/18 14:42:41;;;;;;;2.50;1.48;;;22.50;48.00;;;;;;6189283;28;20030;-77
2022/06/18 14:45:53;;;;;;;2.00;1.42;;;22.50;48.00;;;;;;6194059;28;20069;-77
2022/06/18 14:49:30;;;;;;;2.58;1.80;;;22.50;48.00;;;;;;6197608;28;20018;-76
2022/06/18 14:52:47;;;;;;;1.58;1.40;;;22.50;48.00;;;;;;6197647;28;20120;-77
2022/06/18 14:56:03;;;;;;;3.85;1.85;;;22.50;48.40;;;;;;6198909;28;20077;-76
2022/06/18 14:59:07;;;;;;;;;;;22.50;48.70;;;;;;6196431;28;20065;-76
2022/06/18 15:02:31;;;;;;;3.85;1.40;;;22.50;48.80;;;;;;6218225;28;19912;-76
2022/06/18 15:05:33;;;;;;;3.85;1.90;;;22.50;48.70;;;;;;6201981;28;20085;-77
2022/06/18 15:08:45;;;;;;;2.97;1.60;;;22.50;48.70;;;;;;6194056;28;20059;-76
2022/06/18 15:11:54;;;;;;;4.43;1.70;;;22.50;48.70;;;;;;6191901;28;20774;-76
2022/06/18 15:14:58;;;;;;;2.00;1.52;;;22.40;48.70;;;;;;6201711;28;20018;-76
2022/06/18 15:21:46;;;;;;;2.45;1.50;;;22.40;48.80;;;;;;6197517;28;20030;-76
2022/06/18 15:28:10;;;;;;;1.35;1.23;;;22.40;49.00;;;;;;6193233;28;20026;-76
2022/06/18 15:31:38;;;;;;;2.28;1.40;;;22.40;49.00;;;;;;6202262;28;20085;-76
2022/06/18 15:34:38;;;;;;;2.20;1.52;;;22.40;49.00;;;;;;6206979;28;20098;-76
2022/06/18 15:38:00;;;;;;;2.20;1.50;;;22.40;49.00;;;;;;6175465;28;20069;-75
2022/06/18 15:41:11;;;;;;;3.17;1.40;;;22.40;49.00;;;;;;6199468;28;20389;-75
2022/06/18 15:44:23;;;;;;;2.38;1.67;;;22.40;49.80;;;;;;6212411;28;20424;-75
2022/06/18 15:47:27;;;;;;;2.17;1.42;;;22.40;49.20;;;;;;6214177;28;20065;-76
2022/06/18 15:50:31;;;;;;;1.38;1.17;;;22.40;49.20;;;;;;6208528;28;20022;-76
2022/06/18 15:53:41;;;;;;;2.40;1.55;;;22.40;49.10;;;;;;6193589;28;20114;-76
2022/06/18 15:56:46;;;;;;;2.00;1.35;;;22.40;49.10;;;;;;6195627;28;20029;-75
2022/06/18 15:59:52;;;;;;;4.50;1.83;;;22.40;49.20;;;;;;6195036;28;20431;-75
2022/06/18 16:02:54;;;;;;;2.53;1.50;;;22.40;49.20;;;;;;6213546;28;20026;-76
2022/06/18 16:05:59;;;;;;;2.15;1.38;;;22.40;49.30;;;;;;6205755;28;20033;-76
2022/06/18 16:09:09;;;;;;;1.67;1.42;;;22.40;49.20;;;;;;6192698;28;20026;-76
2022/06/18 16:12:30;;;;;;;2.00;1.50;;;22.40;49.10;;;;;;6173743;28;20026;-74
2022/06/18 16:15:31;;;;;;;2.33;1.50;;;22.40;49.30;;;;;;6204096;28;20093;-75
2022/06/18 16:18:34;;;;;;;2.85;1.42;;;22.40;49.50;;;;;;6191112;28;20065;-74
2022/06/18 16:21:44;;;;;;;3.15;1.85;;;22.40;49.40;;;;;;6204305;28;20021;-74
2022/06/18 16:24:47;;;;;;;2.40;1.60;;;22.40;49.50;;;;;;6211884;28;20038;-75
2022/06/18 16:27:57;;;;;;;2.22;1.50;;;22.30;49.40;;;;;;6191244;28;20077;-74
2022/06/18 16:31:07;;;;;;;2.00;1.55;;;22.40;49.50;;;;;;6207303;28;21093;-74
2022/06/18 16:34:12;;;;;;;2.00;1.50;;;22.40;49.60;;;;;;6199844;28;20456;-74
2022/06/18 16:37:22;;;;;;;1.90;1.65;;;22.40;49.60;;;;;;6201805;28;20691;-74
2022/06/18 16:40:25;;;;;;;3.17;2.05;;;22.30;49.50;;;;;;6212929;28;20045;-74
2022/06/18 16:43:26;;;;;;;1.42;1.20;;;22.30;49.60;;;;;;6190406;28;20023;-74
2022/06/18 16:46:33;;;;;;;4.30;1.73;;;22.40;49.20;;;;;;6200243;28;20082;-74